sensor_id;sensor_type;location;lat;lon;timestamp;pressure;altitude;pressure_sealevel;temperature;humidity
59289;BME280;45056;47.602;9.886;2022-08-21T00:02:14;93209.44;;;17.45;67.43
59289;BME280;45056;47.602;9.886;2022-08-21T00:04:44;93212.66;;;17.43;67.55
59289;BME280;45056;47.602;9.886;2022-08-21T00:07:14;93212.59;;;17.38;67.48
59289;BME280;45056;47.602;9.886;2022-08-21T00:09:42;93200.47;;;17.29;67.53
59289;BME280;45056;47.602;9.886;2022-08-21T00:12:11;93205.13;;;17.23;67.89
59289;BME280;45056;47.602;9.886;2022-08-21T00:14:40;93193.56;;;17.19;67.99
59289;BME280;45056;47.602;9.886;2022-08-21T00:17:08;93198.06;;;17.16;67.82
59289;BME280;45056;47.602;9.886;2022-08-21T00:19:36;93185.53;;;17.15;67.79
59289;BME280;45056;47.602;9.886;2022-08-21T00:22:04;93185.25;;;17.13;68.08
59289;BME280;45056;47.602;9.886;2022-08-21T00:24:34;93188.47;;;17.12;68.12
59289;BME280;45056;47.602;9.886;2022-08-21T00:27:02;93190.47;;;17.11;68.01
59289;BME280;45056;47.602;9.886;2022-08-21T00:29:30;93181.66;;;17.07;67.99
59289;BME280;45056;47.602;9.886;2022-08-21T00:31:58;93188.63;;;17.02;68.19
59289;BME280;45056;47.602;9.886;2022-08-21T00:34:27;93185.28;;;16.98;68.23
59289;BME280;45056;47.602;9.886;2022-08-21T00:36:55;93179.97;;;16.95;68.48
59289;BME280;45056;47.602;9.886;2022-08-21T00:39:23;93183.19;;;16.93;68.65
59289;BME280;45056;47.602;9.886;2022-08-21T00:41:52;93191.91;;;16.92;68.93
59289;BME280;45056;47.602;9.886;2022-08-21T00:44:20;93184.91;;;16.91;69.00
59289;BME280;45056;47.602;9.886;2022-08-21T00:46:51;93181.38;;;16.90;68.97
59289;BME280;45056;47.602;9.886;2022-08-21T00:49:20;93179.13;;;16.88;68.90
59289;BME280;45056;47.602;9.886;2022-08-21T00:51:51;93177.13;;;16.89;68.68
59289;BME280;45056;47.602;9.886;2022-08-21T00:54:25;93180.38;;;16.87;68.94
59289;BME280;45056;47.602;9.886;2022-08-21T00:57:07;93175.63;;;16.88;69.06
59289;BME280;45056;47.602;9.886;2022-08-21T00:59:40;93169.66;;;16.90;68.87
59289;BME280;45056;47.602;9.886;2022-08-21T01:02:12;93182.16;;;16.91;68.65
59289;BME280;45056;47.602;9.886;2022-08-21T01:04:40;93171.63;;;16.89;68.72
59289;BME280;45056;47.602;9.886;2022-08-21T01:07:09;93172.59;;;16.86;68.69
59289;BME280;45056;47.602;9.886;2022-08-21T01:09:41;93166.34;;;16.85;68.61
59289;BME280;45056;47.602;9.886;2022-08-21T01:12:11;93170.31;;;16.84;68.55
59289;BME280;45056;47.602;9.886;2022-08-21T01:14:41;93175.06;;;16.84;68.63
59289;BME280;45056;47.602;9.886;2022-08-21T01:17:13;93168.22;;;16.79;68.71
59289;BME280;45056;47.602;9.886;2022-08-21T01:19:45;93172.88;;;16.73;68.89
59289;BME280;45056;47.602;9.886;2022-08-21T01:22:15;93175.53;;;16.67;69.07
59289;BME280;45056;47.602;9.886;2022-08-21T01:24:44;93169.97;;;16.62;69.06
59289;BME280;45056;47.602;9.886;2022-08-21T01:27:12;93162.59;;;16.53;69.28
59289;BME280;45056;47.602;9.886;2022-08-21T01:29:44;93163.72;;;16.46;69.55
59289;BME280;45056;47.602;9.886;2022-08-21T01:32:19;93162.69;;;16.43;69.81
59289;BME280;45056;47.602;9.886;2022-08-21T01:34:49;93155.19;;;16.44;70.11
59289;BME280;45056;47.602;9.886;2022-08-21T01:37:21;93159.75;;;16.47;70.06
59289;BME280;45056;47.602;9.886;2022-08-21T01:39:50;93161.53;;;16.50;69.73
59289;BME280;45056;47.602;9.886;2022-08-21T01:42:18;93151.78;;;16.49;69.71
59289;BME280;45056;47.602;9.886;2022-08-21T01:44:46;93159.28;;;16.49;69.63
59289;BME280;45056;47.602;9.886;2022-08-21T01:47:15;93153.31;;;16.50;69.71
59289;BME280;45056;47.602;9.886;2022-08-21T01:49:45;93151.78;;;16.49;69.86
59289;BME280;45056;47.602;9.886;2022-08-21T01:52:13;93146.56;;;16.51;69.91
59289;BME280;45056;47.602;9.886;2022-08-21T01:54:43;93153.88;;;16.54;69.71
59289;BME280;45056;47.602;9.886;2022-08-21T01:57:12;93151.16;;;16.54;69.42
59289;BME280;45056;47.602;9.886;2022-08-21T01:59:41;93149.13;;;16.55;69.36
59289;BME280;45056;47.602;9.886;2022-08-21T02:02:09;93147.16;;;16.55;69.22
59289;BME280;45056;47.602;9.886;2022-08-21T02:04:37;93145.66;;;16.54;69.10
59289;BME280;45056;47.602;9.886;2022-08-21T02:07:06;93146.84;;;16.53;69.08
59289;BME280;45056;47.602;9.886;2022-08-21T02:09:34;93142.13;;;16.54;69.12
59289;BME280;45056;47.602;9.886;2022-08-21T02:12:04;93129.63;;;16.53;69.14
59289;BME280;45056;47.602;9.886;2022-08-21T02:14:32;93134.34;;;16.52;69.08
59289;BME280;45056;47.602;9.886;2022-08-21T02:17:01;93133.63;;;16.52;69.10
59289;BME280;45056;47.602;9.886;2022-08-21T02:19:29;93130.88;;;16.52;68.85
59289;BME280;45056;47.602;9.886;2022-08-21T02:21:57;93126.59;;;16.51;68.90
59289;BME280;45056;47.602;9.886;2022-08-21T02:24:25;93127.34;;;16.51;68.71
59289;BME280;45056;47.602;9.886;2022-08-21T02:26:53;93112.59;;;16.49;68.71
59289;BME280;45056;47.602;9.886;2022-08-21T02:29:22;93124.81;;;16.48;68.79
59289;BME280;45056;47.602;9.886;2022-08-21T02:31:50;93119.78;;;16.46;68.57
59289;BME280;45056;47.602;9.886;2022-08-21T02:34:19;93123.75;;;16.45;68.49
59289;BME280;45056;47.602;9.886;2022-08-21T02:36:47;93113.28;;;16.43;68.67
59289;BME280;45056;47.602;9.886;2022-08-21T02:39:16;93118.75;;;16.43;68.62
59289;BME280;45056;47.602;9.886;2022-08-21T02:41:44;93105.50;;;16.42;68.70
59289;BME280;45056;47.602;9.886;2022-08-21T02:44:12;93113.72;;;16.42;68.28
59289;BME280;45056;47.602;9.886;2022-08-21T02:46:41;93114.97;;;16.41;68.18
59289;BME280;45056;47.602;9.886;2022-08-21T02:49:09;93114.13;;;16.35;68.30
59289;BME280;45056;47.602;9.886;2022-08-21T02:51:37;93125.78;;;16.29;68.58
59289;BME280;45056;47.602;9.886;2022-08-21T02:54:05;93113.97;;;16.23;68.76
59289;BME280;45056;47.602;9.886;2022-08-21T02:56:33;93118.84;;;16.19;68.90
59289;BME280;45056;47.602;9.886;2022-08-21T02:59:02;93111.09;;;16.18;69.06
59289;BME280;45056;47.602;9.886;2022-08-21T03:01:30;93115.38;;;16.19;69.04
59289;BME280;45056;47.602;9.886;2022-08-21T03:03:59;93105.91;;;16.20;68.91
59289;BME280;45056;47.602;9.886;2022-08-21T03:06:27;93113.38;;;16.19;68.85
59289;BME280;45056;47.602;9.886;2022-08-21T03:08:56;93114.31;;;16.16;68.93
59289;BME280;45056;47.602;9.886;2022-08-21T03:11:24;93111.50;;;16.10;68.99
59289;BME280;45056;47.602;9.886;2022-08-21T03:13:52;93110.63;;;16.04;69.01
59289;BME280;45056;47.602;9.886;2022-08-21T03:16:20;93109.03;;;15.97;69.10
59289;BME280;45056;47.602;9.886;2022-08-21T03:18:48;93108.91;;;15.92;69.62
59289;BME280;45056;47.602;9.886;2022-08-21T03:21:18;93110.16;;;15.91;69.64
59289;BME280;45056;47.602;9.886;2022-08-21T03:23:49;93110.91;;;15.91;69.97
59289;BME280;45056;47.602;9.886;2022-08-21T03:26:17;93099.47;;;15.93;69.77
59289;BME280;45056;47.602;9.886;2022-08-21T03:28:45;93097.78;;;15.95;69.53
59289;BME280;45056;47.602;9.886;2022-08-21T03:31:13;93103.25;;;15.95;69.39
59289;BME280;45056;47.602;9.886;2022-08-21T03:33:41;93107.50;;;15.96;69.49
59289;BME280;45056;47.602;9.886;2022-08-21T03:36:10;93103.25;;;15.95;69.48
59289;BME280;45056;47.602;9.886;2022-08-21T03:38:41;93104.50;;;15.94;69.29
59289;BME280;45056;47.602;9.886;2022-08-21T03:41:09;93108.47;;;15.93;69.53
59289;BME280;45056;47.602;9.886;2022-08-21T03:43:37;93105.44;;;15.91;69.61
59289;BME280;45056;47.602;9.886;2022-08-21T03:46:06;93102.38;;;15.89;69.35
59289;BME280;45056;47.602;9.886;2022-08-21T03:48:36;93103.78;;;15.84;69.66
59289;BME280;45056;47.602;9.886;2022-08-21T03:51:07;93104.53;;;15.85;69.49
59289;BME280;45056;47.602;9.886;2022-08-21T03:53:35;93098.75;;;15.83;69.80
59289;BME280;45056;47.602;9.886;2022-08-21T03:56:06;93107.00;;;15.83;69.68
59289;BME280;45056;47.602;9.886;2022-08-21T03:58:34;93101.03;;;15.84;69.61
59289;BME280;45056;47.602;9.886;2022-08-21T04:01:04;93108.03;;;15.85;69.26
59289;BME280;45056;47.602;9.886;2022-08-21T04:03:35;93105.59;;;15.87;69.04
59289;BME280;45056;47.602;9.886;2022-08-21T04:06:05;93103.88;;;15.90;69.29
59289;BME280;45056;47.602;9.886;2022-08-21T04:08:34;93113.34;;;15.89;69.21
59289;BME280;45056;47.602;9.886;2022-08-21T04:11:03;93108.63;;;15.90;69.09
59289;BME280;45056;47.602;9.886;2022-08-21T04:13:33;93117.31;;;15.88;68.99
59289;BME280;45056;47.602;9.886;2022-08-21T04:16:01;93115.03;;;15.86;69.05
59289;BME280;45056;47.602;9.886;2022-08-21T04:18:30;93108.78;;;15.86;69.17
59289;BME280;45056;47.602;9.886;2022-08-21T04:20:59;93121.00;;;15.85;69.04
59289;BME280;45056;47.602;9.886;2022-08-21T04:23:29;93125.72;;;15.84;69.17
59289;BME280;45056;47.602;9.886;2022-08-21T04:25:58;93123.00;;;15.84;69.13
59289;BME280;45056;47.602;9.886;2022-08-21T04:28:28;93122.22;;;15.84;69.12
59289;BME280;45056;47.602;9.886;2022-08-21T04:30:57;93120.25;;;15.84;69.37
59289;BME280;45056;47.602;9.886;2022-08-21T04:33:25;93123.00;;;15.84;69.36
59289;BME280;45056;47.602;9.886;2022-08-21T04:35:53;93124.97;;;15.84;69.36
59289;BME280;45056;47.602;9.886;2022-08-21T04:38:21;93124.97;;;15.84;69.11
59289;BME280;45056;47.602;9.886;2022-08-21T04:40:51;93130.72;;;15.86;69.38
59289;BME280;45056;47.602;9.886;2022-08-21T04:43:20;93131.97;;;15.85;69.04
59289;BME280;45056;47.602;9.886;2022-08-21T04:45:52;93135.00;;;15.87;69.24
59289;BME280;45056;47.602;9.886;2022-08-21T04:48:22;93141.56;;;15.90;69.15
59289;BME280;45056;47.602;9.886;2022-08-21T04:50:57;93138.66;;;15.93;69.17
59289;BME280;45056;47.602;9.886;2022-08-21T04:53:33;93139.66;;;15.96;69.19
59289;BME280;45056;47.602;9.886;2022-08-21T04:56:08;93144.22;;;15.99;69.34
59289;BME280;45056;47.602;9.886;2022-08-21T04:58:40;93148.28;;;16.04;69.19
59289;BME280;45056;47.602;9.886;2022-08-21T05:01:15;93144.16;;;16.08;69.20
59289;BME280;45056;47.602;9.886;2022-08-21T05:03:50;93148.47;;;16.15;69.15
59289;BME280;45056;47.602;9.886;2022-08-21T05:06:23;93150.56;;;16.20;68.92
59289;BME280;45056;47.602;9.886;2022-08-21T05:08:55;93156.94;;;16.26;69.04
59289;BME280;45056;47.602;9.886;2022-08-21T05:11:24;93150.28;;;16.33;69.17
59289;BME280;45056;47.602;9.886;2022-08-21T05:13:52;93162.88;;;16.40;69.10
59289;BME280;45056;47.602;9.886;2022-08-21T05:16:22;93151.22;;;16.45;68.80
59289;BME280;45056;47.602;9.886;2022-08-21T05:18:50;93154.53;;;16.49;69.05
59289;BME280;45056;47.602;9.886;2022-08-21T05:21:18;93152.34;;;16.53;68.96
59289;BME280;45056;47.602;9.886;2022-08-21T05:23:47;93152.94;;;16.57;69.06
59289;BME280;45056;47.602;9.886;2022-08-21T05:26:15;93159.00;;;16.62;68.79
59289;BME280;45056;47.602;9.886;2022-08-21T05:28:43;93152.81;;;16.67;69.07
59289;BME280;45056;47.602;9.886;2022-08-21T05:31:11;93157.38;;;16.70;68.62
59289;BME280;45056;47.602;9.886;2022-08-21T05:33:41;93151.41;;;16.71;68.33
59289;BME280;45056;47.602;9.886;2022-08-21T05:36:09;93150.22;;;16.78;68.29
59289;BME280;45056;47.602;9.886;2022-08-21T05:38:37;93153.06;;;16.84;67.93
59289;BME280;45056;47.602;9.886;2022-08-21T05:41:05;93149.75;;;16.95;67.71
59289;BME280;45056;47.602;9.886;2022-08-21T05:43:33;93156.19;;;17.07;67.44
59289;BME280;45056;47.602;9.886;2022-08-21T05:46:02;93151.59;;;17.19;67.54
59289;BME280;45056;47.602;9.886;2022-08-21T05:48:32;93151.47;;;17.28;67.05
59289;BME280;45056;47.602;9.886;2022-08-21T05:51:07;93154.75;;;17.32;66.38
59289;BME280;45056;47.602;9.886;2022-08-21T05:53:37;93151.72;;;17.30;66.13
59289;BME280;45056;47.602;9.886;2022-08-21T05:56:06;93153.44;;;17.27;66.22
59289;BME280;45056;47.602;9.886;2022-08-21T05:58:34;93155.16;;;17.25;66.23
59289;BME280;45056;47.602;9.886;2022-08-21T06:01:03;93143.91;;;17.23;66.35
59289;BME280;45056;47.602;9.886;2022-08-21T06:03:34;93142.38;;;17.22;66.38
59289;BME280;45056;47.602;9.886;2022-08-21T06:06:06;93139.63;;;17.22;66.60
59289;BME280;45056;47.602;9.886;2022-08-21T06:08:35;93137.16;;;17.24;66.34
59289;BME280;45056;47.602;9.886;2022-08-21T06:11:05;93133.91;;;17.25;66.44
59289;BME280;45056;47.602;9.886;2022-08-21T06:13:34;93137.22;;;17.29;66.43
59289;BME280;45056;47.602;9.886;2022-08-21T06:16:06;93141.00;;;17.32;66.76
59289;BME280;45056;47.602;9.886;2022-08-21T06:18:37;93135.31;;;17.36;66.97
59289;BME280;45056;47.602;9.886;2022-08-21T06:21:08;93137.38;;;17.41;67.14
59289;BME280;45056;47.602;9.886;2022-08-21T06:23:37;93138.38;;;17.43;67.04
59289;BME280;45056;47.602;9.886;2022-08-21T06:26:09;93133.72;;;17.50;67.07
59289;BME280;45056;47.602;9.886;2022-08-21T06:28:40;93130.28;;;17.55;66.79
59289;BME280;45056;47.602;9.886;2022-08-21T06:31:11;93128.34;;;17.61;66.71
59289;BME280;45056;47.602;9.886;2022-08-21T06:33:42;93127.66;;;17.66;66.63
59289;BME280;45056;47.602;9.886;2022-08-21T06:36:11;93125.72;;;17.72;66.58
59289;BME280;45056;47.602;9.886;2022-08-21T06:38:40;93131.75;;;17.77;66.23
59289;BME280;45056;47.602;9.886;2022-08-21T06:41:08;93130.31;;;17.81;65.95
59289;BME280;45056;47.602;9.886;2022-08-21T06:43:37;93137.88;;;17.86;65.56
59289;BME280;45056;47.602;9.886;2022-08-21T06:46:06;93127.41;;;17.91;65.20
59289;BME280;45056;47.602;9.886;2022-08-21T06:48:34;93122.75;;;17.97;65.00
59289;BME280;45056;47.602;9.886;2022-08-21T06:51:03;93120.31;;;18.05;64.67
59289;BME280;45056;47.602;9.886;2022-08-21T06:53:33;93119.66;;;18.15;64.92
59289;BME280;45056;47.602;9.886;2022-08-21T06:56:02;93116.28;;;18.26;65.64
59289;BME280;45056;47.602;9.886;2022-08-21T06:58:31;93127.09;;;18.36;66.25
59289;BME280;45056;47.602;9.886;2022-08-21T07:00:59;93120.91;;;18.41;66.73
59289;BME280;45056;47.602;9.886;2022-08-21T07:03:31;93120.94;;;18.46;66.53
59289;BME280;45056;47.602;9.886;2022-08-21T07:06:00;93127.47;;;18.49;66.21
59289;BME280;45056;47.602;9.886;2022-08-21T07:08:28;93129.00;;;18.50;65.97
59289;BME280;45056;47.602;9.886;2022-08-21T07:11:00;93126.97;;;18.51;65.88
59289;BME280;45056;47.602;9.886;2022-08-21T07:13:31;93125.25;;;18.53;65.58
59289;BME280;45056;47.602;9.886;2022-08-21T07:15:59;93125.78;;;18.57;65.35
59289;BME280;45056;47.602;9.886;2022-08-21T07:18:27;93127.09;;;18.62;64.55
59289;BME280;45056;47.602;9.886;2022-08-21T07:20:55;93120.09;;;18.67;63.74
59289;BME280;45056;47.602;9.886;2022-08-21T07:23:27;93134.94;;;18.75;63.46
59289;BME280;45056;47.602;9.886;2022-08-21T07:25:59;93124.63;;;19.08;62.28
59289;BME280;45056;47.602;9.886;2022-08-21T07:28:29;93128.25;;;19.25;61.31
59289;BME280;45056;47.602;9.886;2022-08-21T07:30:59;93137.06;;;19.29;61.04
59289;BME280;45056;47.602;9.886;2022-08-21T07:33:31;93125.75;;;19.33;61.39
59289;BME280;45056;47.602;9.886;2022-08-21T07:36:01;93133.31;;;19.32;61.70
59289;BME280;45056;47.602;9.886;2022-08-21T07:38:30;93121.25;;;19.30;61.40
59289;BME280;45056;47.602;9.886;2022-08-21T07:41:00;93124.72;;;19.25;61.48
59289;BME280;45056;47.602;9.886;2022-08-21T07:43:29;93126.50;;;19.22;61.72
59289;BME280;45056;47.602;9.886;2022-08-21T07:45:57;93129.72;;;19.21;61.59
59289;BME280;45056;47.602;9.886;2022-08-21T07:48:25;93123.72;;;19.22;61.62
59289;BME280;45056;47.602;9.886;2022-08-21T07:50:53;93125.50;;;19.25;61.51
59289;BME280;45056;47.602;9.886;2022-08-21T07:53:22;93117.22;;;19.31;61.77
59289;BME280;45056;47.602;9.886;2022-08-21T07:55:50;93125.03;;;19.32;60.92
59289;BME280;45056;47.602;9.886;2022-08-21T07:58:19;93117.00;;;19.35;60.54
59289;BME280;45056;47.602;9.886;2022-08-21T08:00:47;93123.28;;;19.35;60.30
59289;BME280;45056;47.602;9.886;2022-08-21T08:03:15;93126.31;;;19.37;59.87
59289;BME280;45056;47.602;9.886;2022-08-21T08:05:44;93119.53;;;19.38;59.94
59289;BME280;45056;47.602;9.886;2022-08-21T08:08:12;93114.75;;;19.39;60.19
59289;BME280;45056;47.602;9.886;2022-08-21T08:10:40;93123.56;;;19.43;60.14
59289;BME280;45056;47.602;9.886;2022-08-21T08:13:09;93121.56;;;19.43;58.98
59289;BME280;45056;47.602;9.886;2022-08-21T08:15:38;93116.31;;;19.45;58.33
59289;BME280;45056;47.602;9.886;2022-08-21T08:18:06;93119.31;;;19.48;58.45
59289;BME280;45056;47.602;9.886;2022-08-21T08:20:34;93108.06;;;19.51;58.43
59289;BME280;45056;47.602;9.886;2022-08-21T08:23:02;93118.09;;;19.54;58.32
59289;BME280;45056;47.602;9.886;2022-08-21T08:25:30;93105.31;;;19.57;58.30
59289;BME280;45056;47.602;9.886;2022-08-21T08:27:58;93106.59;;;19.61;57.31
59289;BME280;45056;47.602;9.886;2022-08-21T08:30:26;93107.09;;;19.66;56.67
59289;BME280;45056;47.602;9.886;2022-08-21T08:32:56;93098.06;;;19.71;56.09
59289;BME280;45056;47.602;9.886;2022-08-21T08:35:25;93101.59;;;19.77;56.30
59289;BME280;45056;47.602;9.886;2022-08-21T08:37:55;93103.66;;;19.82;56.13
59289;BME280;45056;47.602;9.886;2022-08-21T08:40:32;93102.38;;;19.89;55.29
59289;BME280;45056;47.602;9.886;2022-08-21T08:43:07;93102.91;;;19.93;55.00
59289;BME280;45056;47.602;9.886;2022-08-21T08:45:39;93095.66;;;19.96;54.57
59289;BME280;45056;47.602;9.886;2022-08-21T08:48:16;93104.44;;;20.00;55.08
59289;BME280;45056;47.602;9.886;2022-08-21T08:51:02;93105.47;;;20.02;53.97
59289;BME280;45056;47.602;9.886;2022-08-21T08:53:47;93109.47;;;20.07;53.93
59289;BME280;45056;47.602;9.886;2022-08-21T08:56:22;93103.47;;;20.09;54.34
59289;BME280;45056;47.602;9.886;2022-08-21T08:59:02;93105.22;;;20.12;54.38
59289;BME280;45056;47.602;9.886;2022-08-21T09:01:34;93103.47;;;20.14;54.94
59289;BME280;45056;47.602;9.886;2022-08-21T09:04:05;93102.47;;;20.17;54.19
59289;BME280;45056;47.602;9.886;2022-08-21T09:06:46;93097.94;;;20.20;53.87
59289;BME280;45056;47.602;9.886;2022-08-21T09:09:34;93098.19;;;20.22;53.72
59289;BME280;45056;47.602;9.886;2022-08-21T09:12:17;93096.94;;;20.23;53.85
59289;BME280;45056;47.602;9.886;2022-08-21T09:15:06;93090.94;;;20.25;54.62
59289;BME280;45056;47.602;9.886;2022-08-21T09:18:09;93094.69;;;20.27;55.81
59289;BME280;45056;47.602;9.886;2022-08-21T09:21:03;93087.94;;;20.28;55.77
59289;BME280;45056;47.602;9.886;2022-08-21T09:23:49;93092.44;;;20.31;55.51
59289;BME280;45056;47.602;9.886;2022-08-21T09:26:31;93085.66;;;20.32;55.12
59289;BME280;45056;47.602;9.886;2022-08-21T09:29:11;93087.16;;;20.39;54.40
59289;BME280;45056;47.602;9.886;2022-08-21T09:31:40;93084.16;;;20.43;53.96
59289;BME280;45056;47.602;9.886;2022-08-21T09:34:10;93083.13;;;20.46;53.99
59289;BME280;45056;47.602;9.886;2022-08-21T09:36:44;93083.38;;;20.48;54.11
59289;BME280;45056;47.602;9.886;2022-08-21T09:39:23;93070.59;;;20.51;54.18
59289;BME280;45056;47.602;9.886;2022-08-21T09:41:59;93076.63;;;20.55;52.43
59289;BME280;45056;47.602;9.886;2022-08-21T09:44:31;93078.38;;;20.58;52.30
59289;BME280;45056;47.602;9.886;2022-08-21T09:47:02;93077.09;;;20.59;51.94
59289;BME280;45056;47.602;9.886;2022-08-21T09:49:32;93080.38;;;20.57;51.49
59289;BME280;45056;47.602;9.886;2022-08-21T09:52:15;93082.63;;;20.59;51.79
59289;BME280;45056;47.602;9.886;2022-08-21T09:54:52;93071.34;;;20.63;51.91
59289;BME280;45056;47.602;9.886;2022-08-21T09:57:25;93074.34;;;20.65;51.64
59289;BME280;45056;47.602;9.886;2022-08-21T10:00:16;93082.63;;;20.65;51.43
59289;BME280;45056;47.602;9.886;2022-08-21T10:02:47;93076.09;;;20.68;51.36
59289;BME280;45056;47.602;9.886;2022-08-21T10:05:19;93079.13;;;20.70;50.91
59289;BME280;45056;47.602;9.886;2022-08-21T10:07:50;93082.13;;;20.72;50.17
59289;BME280;45056;47.602;9.886;2022-08-21T10:10:22;93077.59;;;20.74;49.67
59289;BME280;45056;47.602;9.886;2022-08-21T10:13:12;93071.56;;;20.76;49.78
59289;BME280;45056;47.602;9.886;2022-08-21T10:15:53;93074.31;;;20.76;49.84
59289;BME280;45056;47.602;9.886;2022-08-21T10:18:42;93068.53;;;20.74;49.54
59289;BME280;45056;47.602;9.886;2022-08-21T10:21:23;93064.03;;;20.76;49.88
59289;BME280;45056;47.602;9.886;2022-08-21T10:24:08;93074.09;;;20.80;49.92
59289;BME280;45056;47.602;9.886;2022-08-21T10:26:55;93061.25;;;20.82;50.48
59289;BME280;45056;47.602;9.886;2022-08-21T10:29:41;93061.75;;;20.86;50.60
59289;BME280;45056;47.602;9.886;2022-08-21T10:32:26;93057.00;;;20.93;50.84
59289;BME280;45056;47.602;9.886;2022-08-21T10:35:13;93053.22;;;20.96;50.07
59289;BME280;45056;47.602;9.886;2022-08-21T10:38:02;93051.66;;;21.00;49.76
59289;BME280;45056;47.602;9.886;2022-08-21T10:41:00;93048.91;;;21.06;49.53
59289;BME280;45056;47.602;9.886;2022-08-21T10:43:49;93050.66;;;21.09;48.35
59289;BME280;45056;47.602;9.886;2022-08-21T10:46:38;93041.84;;;21.11;48.29
59289;BME280;45056;47.602;9.886;2022-08-21T10:49:36;93050.63;;;21.15;48.50
59289;BME280;45056;47.602;9.886;2022-08-21T10:52:32;93051.13;;;21.19;48.48
59289;BME280;45056;47.602;9.886;2022-08-21T10:55:18;93054.38;;;21.23;49.20
59289;BME280;45056;47.602;9.886;2022-08-21T10:57:56;93048.81;;;21.29;49.78
59289;BME280;45056;47.602;9.886;2022-08-21T11:00:33;93048.53;;;21.38;49.78
59289;BME280;45056;47.602;9.886;2022-08-21T11:03:12;93046.97;;;21.48;49.37
59289;BME280;45056;47.602;9.886;2022-08-21T11:05:48;93046.41;;;21.61;49.22
59289;BME280;45056;47.602;9.886;2022-08-21T11:08:26;93040.78;;;21.79;49.09
59289;BME280;45056;47.602;9.886;2022-08-21T11:11:04;93042.72;;;21.95;48.71
59289;BME280;45056;47.602;9.886;2022-08-21T11:13:41;93049.13;;;22.15;48.77
59289;BME280;45056;47.602;9.886;2022-08-21T11:16:21;93040.41;;;22.36;48.01
59289;BME280;45056;47.602;9.886;2022-08-21T11:19:02;93042.78;;;22.56;47.59
59289;BME280;45056;47.602;9.886;2022-08-21T11:21:42;93034.06;;;22.71;46.83
59289;BME280;45056;47.602;9.886;2022-08-21T11:24:24;93035.28;;;22.76;46.14
59289;BME280;45056;47.602;9.886;2022-08-21T11:27:03;93029.78;;;22.70;46.84
59289;BME280;45056;47.602;9.886;2022-08-21T11:29:49;93031.88;;;22.64;47.06
59289;BME280;45056;47.602;9.886;2022-08-21T11:32:49;93032.72;;;22.53;46.47
59289;BME280;45056;47.602;9.886;2022-08-21T11:35:37;93025.47;;;22.44;46.60
59289;BME280;45056;47.602;9.886;2022-08-21T11:38:26;93022.47;;;22.42;47.07
59289;BME280;45056;47.602;9.886;2022-08-21T11:41:06;93023.13;;;22.54;46.09
59289;BME280;45056;47.602;9.886;2022-08-21T11:43:47;93013.63;;;22.74;46.13
59289;BME280;45056;47.602;9.886;2022-08-21T11:46:28;93014.19;;;22.92;44.26
59289;BME280;45056;47.602;9.886;2022-08-21T11:49:21;93007.19;;;23.10;43.91
59289;BME280;45056;47.602;9.886;2022-08-21T11:52:08;93008.00;;;23.24;43.31
59289;BME280;45056;47.602;9.886;2022-08-21T11:54:49;93010.16;;;23.37;43.09
59289;BME280;45056;47.602;9.886;2022-08-21T11:57:26;93000.44;;;23.49;43.79
59289;BME280;45056;47.602;9.886;2022-08-21T12:00:03;93003.88;;;23.56;43.52
59289;BME280;45056;47.602;9.886;2022-08-21T12:02:41;93001.94;;;23.51;43.10
59289;BME280;45056;47.602;9.886;2022-08-21T12:05:26;92992.53;;;23.54;43.45
59289;BME280;45056;47.602;9.886;2022-08-21T12:08:05;92992.16;;;23.63;43.44
59289;BME280;45056;47.602;9.886;2022-08-21T12:10:40;92986.47;;;23.74;43.50
59289;BME280;45056;47.602;9.886;2022-08-21T12:13:24;92996.63;;;23.85;42.31
59289;BME280;45056;47.602;9.886;2022-08-21T12:16:05;92991.44;;;23.95;42.95
59289;BME280;45056;47.602;9.886;2022-08-21T12:18:35;92987.78;;;24.06;42.38
59289;BME280;45056;47.602;9.886;2022-08-21T12:21:19;92982.56;;;24.16;40.97
59289;BME280;45056;47.602;9.886;2022-08-21T12:24:02;92981.41;;;24.25;41.14
59289;BME280;45056;47.602;9.886;2022-08-21T12:26:35;92982.81;;;24.31;40.50
59289;BME280;45056;47.602;9.886;2022-08-21T12:29:22;92976.44;;;24.37;40.37
59289;BME280;45056;47.602;9.886;2022-08-21T12:31:57;92975.38;;;24.40;40.82
59289;BME280;45056;47.602;9.886;2022-08-21T12:34:34;92977.59;;;24.41;40.91
59289;BME280;45056;47.602;9.886;2022-08-21T12:37:16;92972.78;;;24.42;40.77
59289;BME280;45056;47.602;9.886;2022-08-21T12:39:52;92967.88;;;24.48;41.97
59289;BME280;45056;47.602;9.886;2022-08-21T12:42:24;92966.38;;;24.60;42.36
59289;BME280;45056;47.602;9.886;2022-08-21T12:45:17;92970.47;;;24.73;42.11
59289;BME280;45056;47.602;9.886;2022-08-21T12:47:56;92964.50;;;24.82;41.39
59289;BME280;45056;47.602;9.886;2022-08-21T12:50:36;92958.28;;;24.89;40.45
59289;BME280;45056;47.602;9.886;2022-08-21T12:53:12;92965.91;;;24.89;39.33
59289;BME280;45056;47.602;9.886;2022-08-21T12:55:53;92965.34;;;24.90;39.56
59289;BME280;45056;47.602;9.886;2022-08-21T12:58:26;92965.25;;;24.96;39.62
59289;BME280;45056;47.602;9.886;2022-08-21T13:00:59;92962.38;;;25.02;39.27
59289;BME280;45056;47.602;9.886;2022-08-21T13:03:31;92955.94;;;25.07;39.03
59289;BME280;45056;47.602;9.886;2022-08-21T13:06:07;92959.16;;;25.11;39.68
59289;BME280;45056;47.602;9.886;2022-08-21T13:08:46;92948.63;;;25.17;39.83
59289;BME280;45056;47.602;9.886;2022-08-21T13:11:22;92940.72;;;25.21;39.56
59289;BME280;45056;47.602;9.886;2022-08-21T13:13:53;92946.69;;;25.26;38.84
59289;BME280;45056;47.602;9.886;2022-08-21T13:16:25;92942.63;;;25.27;38.17
59289;BME280;45056;47.602;9.886;2022-08-21T13:18:58;92945.63;;;25.29;39.06
59289;BME280;45056;47.602;9.886;2022-08-21T13:21:33;92948.84;;;25.33;38.20
59289;BME280;45056;47.602;9.886;2022-08-21T13:24:16;92947.75;;;25.36;37.74
59289;BME280;45056;47.602;9.886;2022-08-21T13:26:46;92946.69;;;25.39;37.69
59289;BME280;45056;47.602;9.886;2022-08-21T13:29:18;92949.88;;;25.43;37.60
59289;BME280;45056;47.602;9.886;2022-08-21T13:31:50;92942.28;;;25.44;37.26